Time;durP1;ratioP1;P1;durP2;ratioP2;P2;SDS_P1;SDS_P2;PMS_P1;PMS_P2;Temp;Humidity;BMP_temperature;BMP_pressure;BME280_temperature;BME280_humidity;BME280_pressure;Samples;Min_cycle;Max_cycle;Signal;HPM_P1;HPM_P2
2023/01/21 00:00:21;;;;;;;;;;;;;;;-144.99;85.84;52617.28;5053486;28;20054;-75
2023/01/21 00:02:48;;;;;;;;;;;;;;;-144.99;86.16;52586.69;5064771;28;20438;-76
2023/01/21 00:05:14;;;;;;;;;;;;;;;-144.99;85.93;52554.09;5058872;28;20356;-77
2023/01/21 00:07:41;;;;;;;;;;;;;;;-144.99;86.06;52605.03;5052179;28;20396;-75
2023/01/21 00:10:08;;;;;;;;;;;;;;;-144.99;85.98;52590.78;5049146;28;20758;-75
2023/01/21 00:12:37;;;;;;;;;;;;;;;-144.99;86.05;52562.25;5054193;28;20024;-76
2023/01/21 00:15:04;;;;;;;;;;;;;;;-144.99;86.15;52594.84;5057789;28;20039;-76
2023/01/21 00:17:34;;;;;;;;;;;;;;;-144.99;86.15;52590.78;5046573;28;20527;-75
2023/01/21 00:20:00;;;;;;;;;;;;;;;-144.99;85.83;52580.59;5047256;28;19982;-75
2023/01/21 00:22:27;;;;;;;;;;;;;;;-144.99;85.89;52578.53;5075368;28;19999;-74
2023/01/21 00:24:53;;;;;;;;;;;;;;;-144.99;85.65;52566.31;5066615;28;19992;-74
2023/01/21 00:27:19;;;;;;;;;;;;;;;-144.99;85.49;52533.69;5084824;28;20019;-74
2023/01/21 00:29:47;;;;;;;;;;;;;;;-144.99;85.28;52603.00;5068973;28;20384;-74
2023/01/21 00:32:14;;;;;;;;;;;;;;;-144.99;85.24;52607.09;5059758;28;19963;-76
2023/01/21 00:34:40;;;;;;;;;;;;;;;-144.99;84.70;52603.00;5076218;28;19982;-75
2023/01/21 00:37:07;;;;;;;;;;;;;;;-144.99;84.67;52586.69;4729191;28;10000653;-75
2023/01/21 00:39:34;;;;;;;;;;;;;;;-144.99;85.01;52550.00;5076676;28;19935;-75
2023/01/21 00:42:03;;;;;;;;;;;;;;;-144.99;84.70;52605.03;5060973;28;20013;-76
2023/01/21 00:44:29;;;;;;;;;;;;;;;-144.99;84.78;52570.38;5062367;28;19928;-75
2023/01/21 00:46:57;;;;;;;;;;;;;;;-144.99;84.68;52554.09;5076370;28;20011;-73
2023/01/21 00:49:23;;;;;;;;;;;;;;;-144.99;84.61;52586.69;5074604;28;20010;-73
2023/01/21 00:51:50;;;;;;;;;;;;;;;-144.99;84.40;52598.94;5065596;28;19924;-74
2023/01/21 00:54:16;;;;;;;;;;;;;;;-144.99;84.33;52594.84;5065000;28;20028;-73
2023/01/21 00:56:43;;;;;;;;;;;;;;;-144.99;84.33;52558.16;5070962;28;20007;-76
2023/01/21 00:59:09;;;;;;;;;;;;;;;-144.99;84.48;52598.94;5079701;28;19960;-75
2023/01/21 01:01:37;;;;;;;;;;;;;;;-144.99;84.48;52566.31;5083330;28;19956;-75
2023/01/21 01:04:05;;;;;;;;;;;;;;;-144.99;84.15;52619.31;5079129;28;19964;-76
2023/01/21 01:06:32;;;;;;;;;;;;;;;-144.99;84.16;52584.66;5082190;28;19939;-76
2023/01/21 01:08:59;;;;;;;;;;;;;;;-144.99;83.99;52619.31;5083625;28;19964;-75
2023/01/21 01:11:26;;;;;;;;;;;;;;;-144.99;84.22;52570.38;5071685;28;19968;-75
2023/01/21 01:13:53;;;;;;;;;;;;;;;-144.99;84.40;52562.25;5069966;28;19924;-75
2023/01/21 01:16:20;;;;;;;;;;;;;;;-144.99;84.56;52603.00;5066110;28;20019;-75
2023/01/21 01:18:47;;;;;;;;;;;;;;;-144.99;84.87;52586.69;5080594;28;19928;-75
2023/01/21 01:21:15;;;;;;;;;;;;;;;-144.99;85.26;52623.38;5083057;28;20423;-75
2023/01/21 01:23:42;;;;;;;;;;;;;;;-144.99;85.24;52603.00;5065804;28;20345;-75
2023/01/21 01:26:10;;;;;;;;;;;;;;;-144.99;85.31;52615.25;5079652;28;20019;-76
2023/01/21 01:28:37;;;;;;;;;;;;;;;-144.99;85.13;52621.34;5079961;28;19974;-76
2023/01/21 01:31:04;;;;;;;;;;;;;;;-144.99;84.96;52609.13;5073436;28;19963;-75
2023/01/21 01:33:30;;;;;;;;;;;;;;;-144.99;84.96;52578.53;5079527;28;20539;-75
2023/01/21 01:36:01;;;;;;;;;;;;;;;-144.99;84.80;52609.13;5080616;28;20420;-76
2023/01/21 01:38:29;;;;;;;;;;;;;;;-144.99;84.89;52623.38;5064028;28;19955;-75
2023/01/21 01:40:55;;;;;;;;;;;;;;;-144.99;85.08;52598.94;5084251;28;19985;-75
2023/01/21 01:43:23;;;;;;;;;;;;;;;-144.99;84.89;52550.00;5072207;28;20145;-74
2023/01/21 01:45:50;;;;;;;;;;;;;;;-144.99;84.82;52582.63;5062823;28;19929;-75
2023/01/21 01:48:18;;;;;;;;;;;;;;;-144.99;84.96;52627.47;5086012;28;19964;-75
2023/01/21 01:50:45;;;;;;;;;;;;;;;-144.99;84.98;52574.47;5075323;28;19970;-76
2023/01/21 01:53:12;;;;;;;;;;;;;;;-144.99;85.27;52594.84;5079678;28;19963;-73
2023/01/21 01:55:41;;;;;;;;;;;;;;;-144.99;85.63;52639.69;5070313;28;19970;-74
2023/01/21 01:58:10;;;;;;;;;;;;;;;-144.99;85.52;52598.94;5083990;28;19966;-75
2023/01/21 02:00:37;;;;;;;;;;;;;;;-144.99;85.59;52609.13;5083926;28;19931;-76
2023/01/21 02:05:47;;;;;;;;;;;;;;;-144.99;86.16;52613.19;5072570;28;19931;-76
2023/01/21 02:08:14;;;;;;;;;;;;;;;-144.99;86.13;52562.25;5072793;28;19964;-75
2023/01/21 02:10:42;;;;;;;;;;;;;;;-144.99;86.56;52574.47;5076106;28;20414;-74
2023/01/21 02:13:08;;;;;;;;;;;;;;;-144.99;86.46;52615.25;5059328;28;19956;-78
2023/01/21 02:15:39;;;;;;;;;;;;;;;-144.99;86.62;52574.47;5086878;28;19924;-76
2023/01/21 02:18:11;;;;;;;;;;;;;;;-144.99;87.57;52617.28;5083282;28;19975;-76
2023/01/21 02:21:03;;;;;;;;;;;;;;;-144.99;88.50;52572.44;5085486;28;19959;-76
2023/01/21 02:23:37;;;;;;;;;;;;;;;-144.99;88.69;52623.38;5080505;28;19928;-75
2023/01/21 02:26:22;;;;;;;;;;;;;;;-144.99;88.87;52598.94;5077942;28;19928;-75
2023/01/21 02:29:03;;;;;;;;;;;;;;;-144.99;88.95;52586.69;5086226;28;19924;-76
2023/01/21 02:31:41;;;;;;;;;;;;;;;-144.99;89.49;52570.38;5066087;28;19931;-73
2023/01/21 02:34:14;;;;;;;;;;;;;;;-144.99;89.36;52586.69;5091523;28;19924;-77
2023/01/21 02:37:01;;;;;;;;;;;;;;;-144.99;89.74;52580.59;5091583;28;20160;-75
2023/01/21 02:39:34;;;;;;;;;;;;;;;-144.99;89.45;52627.47;5083613;28;19935;-75
2023/01/21 02:42:04;;;;;;;;;;;;;;;-144.99;89.39;52607.09;5086470;28;19958;-75
2023/01/21 02:44:34;;;;;;;;;;;;;;;-144.99;89.39;52615.25;5080470;28;19929;-77
2023/01/21 02:47:06;;;;;;;;;;;;;;;-144.99;89.62;52607.09;5086246;28;19924;-76
2023/01/21 02:49:36;;;;;;;;;;;;;;;-144.99;89.19;52574.47;5094382;28;19939;-76
2023/01/21 02:52:02;;;;;;;;;;;;;;;-144.99;88.67;52586.69;5089964;28;19930;-76
2023/01/21 02:54:49;;;;;;;;;;;;;;;-144.99;89.31;52566.31;5073259;28;19929;-76
2023/01/21 02:57:18;;;;;;;;;;;;;;;-144.99;89.03;52566.31;5076985;28;19932;-75
2023/01/21 02:59:46;;;;;;;;;;;;;;;-144.99;88.93;52643.78;5082299;28;19924;-75
2023/01/21 03:02:18;;;;;;;;;;;;;;;-144.99;88.76;52625.44;5071573;28;19991;-75
2023/01/21 03:04:52;;;;;;;;;;;;;;;-144.99;88.55;52590.78;5073310;28;19966;-79
2023/01/21 03:07:22;;;;;;;;;;;;;;;-144.99;89.02;52570.38;5072461;28;20307;-77
2023/01/21 03:09:49;;;;;;;;;;;;;;;-144.99;89.10;52607.09;5082847;28;19978;-76
2023/01/21 03:12:21;;;;;;;;;;;;;;;-144.99;89.50;52615.25;5061869;28;19970;-75
2023/01/21 03:17:40;;;;;;;;;;;;;;;-144.99;89.79;52594.84;5069631;28;20009;-75
2023/01/21 03:20:11;;;;;;;;;;;;;;;-144.99;90.37;52600.97;5081527;28;19932;-75
2023/01/21 03:22:38;;;;;;;;;;;;;;;-144.99;90.62;52582.63;5071375;28;20438;-75
2023/01/21 03:25:06;;;;;;;;;;;;;;;-144.99;91.18;52594.84;5068610;28;20003;-74
2023/01/21 03:27:35;;;;;;;;;;;;;;;-144.99;91.51;52572.44;5085282;28;19964;-76
2023/01/21 03:30:03;;;;;;;;;;;;;;;-144.99;91.70;52578.53;5077925;28;20013;-77
2023/01/21 03:32:31;;;;;;;;;;;;;;;-144.99;91.99;52590.78;5070616;28;20639;-76
2023/01/21 03:34:59;;;;;;;;;;;;;;;-144.99;91.83;52554.09;5066751;28;20607;-77
2023/01/21 03:37:30;;;;;;;;;;;;;;;-144.99;91.66;52562.25;5079910;28;19949;-76
2023/01/21 03:40:03;;;;;;;;;;;;;;;-144.99;91.74;52582.63;5081573;28;19981;-77
2023/01/21 03:42:30;;;;;;;;;;;;;;;-144.99;92.10;52582.63;5071727;28;19946;-77
2023/01/21 03:44:56;;;;;;;;;;;;;;;-144.99;92.63;52611.16;5068014;28;19980;-76
2023/01/21 03:47:24;;;;;;;;;;;;;;;-144.99;92.36;52582.63;5080433;28;19981;-76
2023/01/21 03:49:53;;;;;;;;;;;;;;;-144.99;92.45;52590.78;5084662;28;20037;-75
2023/01/21 03:52:21;;;;;;;;;;;;;;;-144.99;92.68;52603.00;5072039;28;19947;-75
2023/01/21 03:54:49;;;;;;;;;;;;;;;-144.99;92.61;52641.72;5078342;28;19925;-75
2023/01/21 03:57:15;;;;;;;;;;;;;;;-144.99;92.86;52574.47;5074496;28;20011;-75
2023/01/21 03:59:42;;;;;;;;;;;;;;;-144.99;92.93;52596.88;5080558;28;20016;-76
2023/01/21 04:02:09;;;;;;;;;;;;;;;-144.99;93.33;52582.63;5070987;28;19924;-74
2023/01/21 04:04:35;;;;;;;;;;;;;;;-144.99;93.10;52598.94;5070927;28;20532;-74
2023/01/21 04:07:02;;;;;;;;;;;;;;;-144.99;92.96;52605.03;5067506;28;19966;-75
2023/01/21 04:09:28;;;;;;;;;;;;;;;-144.99;94.48;52543.91;5081709;28;19928;-76
2023/01/21 04:11:57;;;;;;;;;;;;;;;-144.99;93.72;52574.47;5056673;28;19972;-75
2023/01/21 04:14:23;;;;;;;;;;;;;;;-144.99;93.87;52566.31;5066589;28;20390;-74
2023/01/21 04:16:50;;;;;;;;;;;;;;;-144.99;93.97;52566.31;5083735;28;19966;-75
2023/01/21 04:19:16;;;;;;;;;;;;;;;-144.99;94.59;52578.53;5074677;28;20501;-73
2023/01/21 04:21:43;;;;;;;;;;;;;;;-144.99;94.54;52582.63;5067860;28;20015;-75
2023/01/21 04:24:09;;;;;;;;;;;;;;;-144.99;94.29;52574.47;5062231;28;19924;-73
2023/01/21 04:26:36;;;;;;;;;;;;;;;-144.99;95.13;52582.63;5079834;28;19952;-73
2023/01/21 04:29:03;;;;;;;;;;;;;;;-144.99;95.85;52566.31;5075703;28;19974;-72
2023/01/21 04:31:30;;;;;;;;;;;;;;;-144.99;96.33;52603.00;5072374;28;20028;-73
2023/01/21 04:33:56;;;;;;;;;;;;;;;-144.99;96.29;52562.25;5078939;28;20368;-76
2023/01/21 04:36:23;;;;;;;;;;;;;;;-144.99;96.61;52574.47;5080327;28;19966;-74
2023/01/21 04:38:49;;;;;;;;;;;;;;;-144.99;96.54;52594.84;5076089;28;19975;-75
2023/01/21 04:41:16;;;;;;;;;;;;;;;-144.99;96.74;52582.63;5076324;28;19963;-74
2023/01/21 04:43:42;;;;;;;;;;;;;;;-144.99;96.95;52598.94;5068261;28;19928;-74
2023/01/21 04:46:10;;;;;;;;;;;;;;;-144.99;97.00;52584.66;5075564;28;19975;-74
2023/01/21 04:48:37;;;;;;;;;;;;;;;-144.99;97.17;52574.47;5084555;28;19971;-75
2023/01/21 04:51:05;;;;;;;;;;;;;;;-144.99;97.21;52570.38;5079687;28;19972;-75
2023/01/21 04:53:31;;;;;;;;;;;;;;;-144.99;97.36;52586.69;5067987;28;19929;-74
2023/01/21 04:55:58;;;;;;;;;;;;;;;-144.99;97.27;52586.69;5071418;28;19981;-74
2023/01/21 04:58:25;;;;;;;;;;;;;;;-144.99;97.99;52619.31;5075243;28;19940;-74
2023/01/21 05:00:52;;;;;;;;;;;;;;;-144.99;98.28;52586.69;5085277;28;19924;-73
2023/01/21 05:03:20;;;;;;;;;;;;;;;-144.99;97.93;52635.63;5062168;28;19960;-75
2023/01/21 05:05:46;;;;;;;;;;;;;;;-144.99;97.53;52570.38;5083205;28;20378;-76
2023/01/21 05:08:13;;;;;;;;;;;;;;;-144.99;97.27;52588.75;5082934;28;19967;-75
2023/01/21 05:10:39;;;;;;;;;;;;;;;-144.99;97.00;52605.03;5073801;28;20044;-76
2023/01/21 05:13:05;;;;;;;;;;;;;;;-144.99;97.11;52578.53;5061140;28;19979;-76
2023/01/21 05:15:32;;;;;;;;;;;;;;;-144.99;96.90;52584.66;5079321;28;19955;-74
2023/01/21 05:17:59;;;;;;;;;;;;;;;-144.99;96.96;52635.63;5082878;28;20465;-75
2023/01/21 05:20:27;;;;;;;;;;;;;;;-144.99;97.08;52570.38;5072860;28;19931;-75
2023/01/21 05:22:53;;;;;;;;;;;;;;;-144.99;96.96;52539.81;5069916;28;19994;-77
2023/01/21 05:25:20;;;;;;;;;;;;;;;-144.99;97.50;52582.63;5079360;28;20296;-76
2023/01/21 05:27:50;;;;;;;;;;;;;;;-144.99;97.07;52627.47;5076918;28;20456;-76
2023/01/21 05:30:17;;;;;;;;;;;;;;;-144.99;97.29;52566.31;5080690;28;19975;-75
2023/01/21 05:32:43;;;;;;;;;;;;;;;-144.99;97.65;52558.16;5068824;28;20025;-75
2023/01/21 05:35:12;;;;;;;;;;;;;;;-144.99;97.18;52541.84;5090746;28;19923;-74
2023/01/21 05:37:40;;;;;;;;;;;;;;;-144.99;97.22;52572.44;5071605;28;19929;-75
2023/01/21 05:40:07;;;;;;;;;;;;;;;-144.99;97.59;52594.84;5084934;28;19948;-75
2023/01/21 05:42:34;;;;;;;;;;;;;;;-144.99;97.43;52578.53;5063146;28;20238;-78
2023/01/21 05:45:01;;;;;;;;;;;;;;;-144.99;97.43;52566.31;5073880;28;19952;-77
2023/01/21 05:47:27;;;;;;;;;;;;;;;-144.99;97.51;52590.78;5083473;28;19967;-76
2023/01/21 05:49:54;;;;;;;;;;;;;;;-144.99;97.55;52582.63;5080459;28;20596;-77
2023/01/21 05:52:20;;;;;;;;;;;;;;;-144.99;97.47;52609.13;5065976;28;19970;-75
2023/01/21 05:54:48;;;;;;;;;;;;;;;-144.99;97.64;52570.38;5072276;28;19924;-76
2023/01/21 05:57:15;;;;;;;;;;;;;;;-144.99;97.58;52584.66;5082497;28;19935;-75
2023/01/21 05:59:41;;;;;;;;;;;;;;;-144.99;97.60;52590.78;5088168;28;19924;-76
2023/01/21 06:02:09;;;;;;;;;;;;;;;-144.99;97.90;52611.16;5082558;28;19932;-73
2023/01/21 06:04:35;;;;;;;;;;;;;;;-144.99;97.92;52603.00;5080689;28;19932;-75
2023/01/21 06:07:01;;;;;;;;;;;;;;;-144.99;97.86;52582.63;5074519;28;19928;-74
2023/01/21 06:09:28;;;;;;;;;;;;;;;-144.99;97.95;52533.69;5084914;28;20024;-75
2023/01/21 06:11:56;;;;;;;;;;;;;;;-144.99;98.48;52582.63;5064077;28;19964;-75
2023/01/21 06:14:22;;;;;;;;;;;;;;;-144.99;98.33;52541.84;5084092;28;19970;-75
2023/01/21 06:16:49;;;;;;;;;;;;;;;-144.99;98.24;52582.63;5071696;28;19986;-73
2023/01/21 06:19:15;;;;;;;;;;;;;;;-144.99;98.14;52570.38;5074857;28;19967;-75
2023/01/21 06:21:41;;;;;;;;;;;;;;;-144.99;98.46;52594.84;5074009;28;19975;-75
2023/01/21 06:24:08;;;;;;;;;;;;;;;-144.99;98.31;52572.44;5081006;28;19928;-75
2023/01/21 06:26:34;;;;;;;;;;;;;;;-144.99;98.51;52615.25;5076509;28;20022;-76
2023/01/21 06:29:02;;;;;;;;;;;;;;;-144.99;98.41;52586.69;5086243;28;19928;-74
2023/01/21 06:31:29;;;;;;;;;;;;;;;-144.99;98.47;52574.47;5066905;28;19928;-73
2023/01/21 06:33:55;;;;;;;;;;;;;;;-144.99;98.63;52598.94;5081835;28;19963;-77
2023/01/21 06:36:22;;;;;;;;;;;;;;;-144.99;98.51;52558.16;5088704;28;19989;-74
2023/01/21 06:38:48;;;;;;;;;;;;;;;-144.99;98.84;52609.13;5086361;28;20002;-74
2023/01/21 06:41:15;;;;;;;;;;;;;;;-144.99;99.22;52529.63;5111240;22;19989;-76
2023/01/21 06:43:41;;;;;;;;;;;;;;;-144.99;99.46;52574.47;5066462;28;20004;-74
2023/01/21 06:46:10;;;;;;;;;;;;;;;-144.99;99.20;52588.75;5069705;28;20053;-78
2023/01/21 06:48:36;;;;;;;;;;;;;;;-144.99;99.39;52574.47;5074442;28;19924;-76
2023/01/21 06:51:03;;;;;;;;;;;;;;;-144.99;99.38;52547.97;5065936;28;20008;-73
2023/01/21 06:53:29;;;;;;;;;;;;;;;-144.99;100.00;52607.09;5060620;28;20031;-75
2023/01/21 06:55:56;;;;;;;;;;;;;;;-144.99;100.00;52582.63;5067236;28;20007;-74
2023/01/21 06:58:23;;;;;;;;;;;;;;;-144.99;100.00;52617.28;5063006;28;20023;-77
2023/01/21 07:00:49;;;;;;;;;;;;;;;-144.99;100.00;52639.69;5066507;28;20529;-74
2023/01/21 07:03:17;;;;;;;;;;;;;;;-144.99;100.00;52525.56;5080220;28;19928;-74
2023/01/21 07:05:43;;;;;;;;;;;;;;;-144.99;100.00;52590.78;5069436;28;19929;-74
2023/01/21 07:08:10;;;;;;;;;;;;;;;-144.99;100.00;52578.53;5060527;28;20027;-73
2023/01/21 07:10:36;;;;;;;;;;;;;;;-144.99;100.00;52588.75;5065553;28;19925;-75
2023/01/21 07:13:03;;;;;;;;;;;;;;;-144.99;100.00;52594.84;5064509;28;19948;-75
2023/01/21 07:15:29;;;;;;;;;;;;;;;-144.99;100.00;52603.00;5056217;28;19986;-75
2023/01/21 07:17:56;;;;;;;;;;;;;;;-144.99;100.00;52590.78;5051585;28;19978;-75
2023/01/21 07:20:24;;;;;;;;;;;;;;;-144.99;100.00;52598.94;5062603;28;20032;-75
2023/01/21 07:22:51;;;;;;;;;;;;;;;-144.99;100.00;52566.31;5060506;28;19928;-75
2023/01/21 07:25:17;;;;;;;;;;;;;;;-144.99;100.00;52578.53;5057704;28;20481;-75
2023/01/21 07:27:44;;;;;;;;;;;;;;;-144.99;100.00;52582.63;5063714;28;20023;-73
2023/01/21 07:30:15;;;;;;;;;;;;;;;-144.99;100.00;52560.19;5066412;28;20024;-75
2023/01/21 07:32:41;;;;;;;;;;;;;;;-144.99;100.00;52543.91;5053500;28;20400;-76
2023/01/21 07:35:08;;;;;;;;;;;;;;;-144.99;100.00;52554.09;5068320;28;19970;-75
2023/01/21 07:37:36;;;;;;;;;;;;;;;-144.99;100.00;52576.50;5059665;28;19972;-74
2023/01/21 07:40:02;;;;;;;;;;;;;;;-144.99;100.00;52643.78;5079321;28;19935;-72
2023/01/21 07:42:29;;;;;;;;;;;;;;;-144.99;100.00;52529.63;5059545;28;19971;-74
2023/01/21 07:44:56;;;;;;;;;;;;;;;-144.99;100.00;52578.53;5059676;28;19962;-78
2023/01/21 07:47:22;;;;;;;;;;;;;;;-144.99;100.00;52566.31;5063967;28;19999;-75
2023/01/21 07:49:49;;;;;;;;;;;;;;;-144.99;100.00;52580.59;5064281;28;20375;-74
2023/01/21 07:52:15;;;;;;;;;;;;;;;-144.99;100.00;52578.53;5057497;28;19960;-73
2023/01/21 07:54:43;;;;;;;;;;;;;;;-144.99;100.00;52558.16;5066124;28;20130;-72
2023/01/21 07:57:09;;;;;;;;;;;;;;;-144.99;100.00;52554.09;5067237;28;20015;-72
2023/01/21 07:59:36;;;;;;;;;;;;;;;-144.99;100.00;52574.47;5065622;28;20390;-73
2023/01/21 08:02:02;;;;;;;;;;;;;;;-144.99;100.00;52607.09;5062666;28;19976;-74
2023/01/21 08:04:29;;;;;;;;;;;;;;;-144.99;100.00;52603.00;5058152;28;20015;-75
2023/01/21 08:06:55;;;;;;;;;;;;;;;-144.99;100.00;52574.47;5067470;28;20017;-74
2023/01/21 08:09:22;;;;;;;;;;;;;;;-144.99;100.00;52603.00;5065988;28;19956;-73
2023/01/21 08:11:50;;;;;;;;;;;;;;;-144.99;100.00;52633.59;5058142;28;20019;-74
2023/01/21 08:14:16;;;;;;;;;;;;;;;-144.99;100.00;52574.47;5062578;28;20046;-77
2023/01/21 08:16:43;;;;;;;;;;;;;;;-144.99;100.00;52568.34;5075896;28;20011;-76
2023/01/21 08:19:10;;;;;;;;;;;;;;;-144.99;100.00;52558.16;5068970;28;19971;-73
2023/01/21 08:21:36;;;;;;;;;;;;;;;-144.99;100.00;52613.19;5056463;28;19925;-75
2023/01/21 08:24:03;;;;;;;;;;;;;;;-144.99;99.30;52570.38;5059466;28;19983;-77
2023/01/21 08:26:29;;;;;;;;;;;;;;;-144.99;98.47;52566.31;5062171;28;20375;-73
2023/01/21 08:28:57;;;;;;;;;;;;;;;-144.99;99.44;52582.63;5064543;28;19994;-74
2023/01/21 08:31:23;;;;;;;;;;;;;;;-144.99;99.83;52550.00;5060937;28;20401;-74
2023/01/21 08:33:50;;;;;;;;;;;;;;;-144.99;100.00;52603.00;5059028;28;20348;-74
2023/01/21 08:36:17;;;;;;;;;;;;;;;-144.99;100.00;52554.09;5063602;28;20488;-74
2023/01/21 08:38:43;;;;;;;;;;;;;;;-144.99;100.00;52594.84;5062313;28;20488;-73
2023/01/21 08:41:10;;;;;;;;;;;;;;;-144.99;100.00;52596.88;5061516;28;19924;-72
2023/01/21 08:43:37;;;;;;;;;;;;;;;-144.99;100.00;52586.69;5057009;28;20004;-74
2023/01/21 08:46:05;;;;;;;;;;;;;;;-144.99;100.00;52582.63;5058527;28;19959;-72
2023/01/21 08:48:31;;;;;;;;;;;;;;;-144.99;100.00;52603.00;5067923;28;19928;-73
2023/01/21 08:50:58;;;;;;;;;;;;;;;-144.99;100.00;52572.44;5066232;28;19936;-73
2023/01/21 08:53:25;;;;;;;;;;;;;;;-144.99;100.00;52558.16;5058867;28;20007;-74
2023/01/21 08:55:51;;;;;;;;;;;;;;;-144.99;100.00;52566.31;5067969;28;19987;-74
2023/01/21 08:58:18;;;;;;;;;;;;;;;-144.99;99.87;52586.69;5062014;28;20010;-74
2023/01/21 09:00:44;;;;;;;;;;;;;;;-144.99;100.00;52558.16;5059642;28;19963;-73
2023/01/21 09:03:15;;;;;;;;;;;;;;;-144.99;100.00;52582.63;5061349;28;19960;-73
2023/01/21 09:05:42;;;;;;;;;;;;;;;-144.99;100.00;52582.63;5064104;28;19952;-76
2023/01/21 09:08:08;;;;;;;;;;;;;;;-144.99;99.62;52558.16;5061148;28;19974;-73
2023/01/21 09:13:34;;;;;;;;;;;;;;;-144.99;99.25;52550.00;4985582;28;19930;-75
2023/01/21 09:16:01;;;;;;;;;;;;;;;-144.99;98.92;52560.19;4986375;28;19984;-76
2023/01/21 09:18:29;;;;;;;;;;;;;;;-144.99;98.72;52582.63;5020093;28;19925;-73
2023/01/21 09:21:00;;;;;;;;;;;;;;;-144.99;98.59;52554.09;5067455;28;20385;-74
2023/01/21 09:23:27;;;;;;;;;;;;;;;-144.99;98.58;52574.47;5066202;28;19963;-73
2023/01/21 09:25:54;;;;;;;;;;;;;;;-144.99;98.43;52584.66;5066008;28;20374;-75
2023/01/21 09:28:23;;;;;;;;;;;;;;;-144.99;98.03;52564.28;5064405;28;20019;-73
2023/01/21 09:30:49;;;;;;;;;;;;;;;-144.99;98.07;52586.69;5066809;28;19928;-73
2023/01/21 09:33:16;;;;;;;;;;;;;;;-144.99;98.06;52590.78;5068814;28;19983;-77
2023/01/21 09:35:44;;;;;;;;;;;;;;;-144.99;97.65;52545.94;5079500;28;19947;-72
2023/01/21 09:38:11;;;;;;;;;;;;;;;-144.99;97.41;52550.00;5072814;28;19975;-74
2023/01/21 09:40:43;;;;;;;;;;;;;;;-144.99;97.91;52545.94;5067412;28;19928;-78
2023/01/21 09:43:11;;;;;;;;;;;;;;;-144.99;97.62;52594.84;5066025;28;19975;-75
2023/01/21 09:45:38;;;;;;;;;;;;;;;-144.99;97.58;52541.84;5061892;28;19971;-76
2023/01/21 09:48:06;;;;;;;;;;;;;;;-144.99;97.68;52537.78;5068667;28;19978;-76
2023/01/21 09:50:33;;;;;;;;;;;;;;;-144.99;98.21;52578.53;5068687;28;19932;-77
2023/01/21 09:53:06;;;;;;;;;;;;;;;-144.99;98.52;52541.84;5063792;28;20027;-76
2023/01/21 09:55:35;;;;;;;;;;;;;;;-144.99;98.58;52623.38;5061433;28;19955;-77
2023/01/21 09:58:10;;;;;;;;;;;;;;;-144.99;98.61;52582.63;5069414;28;19929;-78
2023/01/21 10:00:40;;;;;;;;;;;;;;;-144.99;97.32;52562.25;5062406;28;20014;-76
2023/01/21 10:03:12;;;;;;;;;;;;;;;-144.99;96.05;52541.84;5057738;28;19952;-77
2023/01/21 10:05:44;;;;;;;;;;;;;;;-144.99;96.51;52570.38;5068877;28;20007;-76
2023/01/21 10:08:16;;;;;;;;;;;;;;;-144.99;97.72;52529.63;5064390;28;19929;-76
2023/01/21 10:10:47;;;;;;;;;;;;;;;-144.99;97.85;52566.31;5081197;28;19929;-78
2023/01/21 10:13:27;;;;;;;;;;;;;;;-144.99;98.26;52566.31;5071123;28;19925;-76
2023/01/21 10:15:59;;;;;;;;;;;;;;;-144.99;98.11;52582.63;5061389;28;20008;-77
2023/01/21 10:18:30;;;;;;;;;;;;;;;-144.99;98.14;52562.25;5057302;28;20540;-76
2023/01/21 10:20:58;;;;;;;;;;;;;;;-144.99;98.21;52590.78;5065651;28;19928;-76
2023/01/21 10:23:28;;;;;;;;;;;;;;;-144.99;98.21;52574.47;5061772;28;19924;-75
2023/01/21 10:25:56;;;;;;;;;;;;;;;-144.99;98.30;52572.44;5075707;28;20012;-75
2023/01/21 10:28:24;;;;;;;;;;;;;;;-144.99;97.63;52541.84;4721211;28;10000258;-81
2023/01/21 10:30:51;;;;;;;;;;;;;;;-144.99;97.80;52576.50;5066273;28;19971;-79
2023/01/21 10:33:19;;;;;;;;;;;;;;;-144.99;98.16;52558.16;5063516;28;20002;-78
2023/01/21 10:36:00;;;;;;;;;;;;;;;-144.99;98.04;52558.16;5060245;28;19971;-76
2023/01/21 10:38:31;;;;;;;;;;;;;;;-144.99;96.47;52550.00;5047190;28;20388;-80
2023/01/21 10:41:01;;;;;;;;;;;;;;;-144.99;95.74;52525.56;5062162;28;19928;-77
2023/01/21 10:43:33;;;;;;;;;;;;;;;-144.99;95.09;52554.09;5061311;28;19932;-77
2023/01/21 10:46:04;;;;;;;;;;;;;;;-144.99;95.11;52566.31;5081742;28;19931;-80
2023/01/21 10:48:36;;;;;;;;;;;;;;;-144.99;95.34;52533.69;5061943;28;20383;-78
2023/01/21 10:51:05;;;;;;;;;;;;;;;-144.99;94.65;52537.78;5064290;28;20011;-76
2023/01/21 10:53:35;;;;;;;;;;;;;;;-144.99;94.62;52558.16;5059543;28;19947;-77
2023/01/21 10:56:10;;;;;;;;;;;;;;;-144.99;95.32;52525.56;5059597;28;19955;-79
2023/01/21 10:58:41;;;;;;;;;;;;;;;-144.99;96.19;52550.00;5063005;28;19936;-76
2023/01/21 11:01:12;;;;;;;;;;;;;;;-144.99;96.49;52531.66;5060307;28;19971;-76
2023/01/21 11:03:41;;;;;;;;;;;;;;;-144.99;96.76;52611.16;5060557;28;19976;-75
2023/01/21 11:06:09;;;;;;;;;;;;;;;-144.99;96.36;52574.47;5059083;28;20428;-74
2023/01/21 11:08:38;;;;;;;;;;;;;;;-144.99;96.10;52513.31;5058358;28;19928;-77
2023/01/21 11:11:06;;;;;;;;;;;;;;;-144.99;98.42;52507.19;5067323;28;20320;-77
2023/01/21 11:13:32;;;;;;;;;;;;;;;-144.99;96.37;52552.03;5058803;28;19924;-76
2023/01/21 11:15:59;;;;;;;;;;;;;;;-144.99;94.46;52525.56;5058828;28;19929;-76
2023/01/21 11:18:28;;;;;;;;;;;;;;;-144.99;94.93;52562.25;5058336;28;20676;-76
2023/01/21 11:20:57;;;;;;;;;;;;;;;-144.99;94.15;52570.38;5057144;28;20023;-76
2023/01/21 11:23:25;;;;;;;;;;;;;;;-144.99;93.49;52497.00;5061600;28;19932;-76
2023/01/21 11:26:00;;;;;;;;;;;;;;;-144.99;91.72;52497.00;5058728;28;20027;-75
2023/01/21 11:28:28;;;;;;;;;;;;;;;-144.99;89.90;52523.50;5052631;28;20349;-77
2023/01/21 11:31:03;;;;;;;;;;;;;;;-144.99;90.07;52501.09;5066246;28;19924;-76
2023/01/21 11:33:30;;;;;;;;;;;;;;;-144.99;93.21;52372.69;5053839;28;20017;-77
2023/01/21 11:35:57;;;;;;;;;;;;;;;-144.99;90.51;52393.06;5067393;28;19982;-76
2023/01/21 11:38:25;;;;;;;;;;;;;;;-144.99;79.50;52384.91;5061618;28;19935;-77
2023/01/21 11:41:04;;;;;;;;;;;;;;;-144.99;75.32;52232.03;5061808;28;19933;-77
2023/01/21 11:43:32;;;;;;;;;;;;;;;-144.99;68.37;52293.19;5059479;28;19960;-78
2023/01/21 11:45:59;;;;;;;;;;;;;;;-144.99;60.31;52223.88;5064088;28;20023;-76
2023/01/21 11:48:25;;;;;;;;;;;;;;;-144.99;53.31;52264.66;5051457;28;20325;-76
2023/01/21 11:51:05;;;;;;;;;;;;;;;-144.99;50.14;52325.81;5072165;28;19925;-76
2023/01/21 11:53:31;;;;;;;;;;;;;;;-144.99;49.71;52360.44;5078973;28;19964;-77
2023/01/21 11:55:58;;;;;;;;;;;;;;;-144.99;48.58;52395.09;5074352;28;19960;-76
2023/01/21 11:58:29;;;;;;;;;;;;;;;-144.99;48.83;52382.88;5081277;28;19925;-77
2023/01/21 12:00:56;;;;;;;;;;;;;;;-144.99;50.12;52401.22;5066125;28;19947;-79
2023/01/21 12:03:24;;;;;;;;;;;;;;;-144.99;50.09;52382.88;5068406;28;19925;-77
2023/01/21 12:05:52;;;;;;;;;;;;;;;-144.99;49.91;52354.34;5076005;28;19993;-78
2023/01/21 12:08:21;;;;;;;;;;;;;;;-144.99;49.29;52329.88;5084889;28;19936;-81
2023/01/21 12:10:47;;;;;;;;;;;;;;;-144.99;48.22;52386.94;5075257;28;19971;-80
2023/01/21 12:13:19;;;;;;;;;;;;;;;-144.99;48.75;52382.88;5056923;28;19987;-80
2023/01/21 12:16:02;;;;;;;;;;;;;;;-144.99;48.33;52435.88;5063244;28;20465;-77
2023/01/21 12:18:33;;;;;;;;;;;;;;;-144.99;48.93;52403.25;5069502;28;19924;-79
2023/01/21 12:21:03;;;;;;;;;;;;;;;-144.99;49.57;52435.88;5071165;28;19948;-79
2023/01/21 12:23:37;;;;;;;;;;;;;;;-144.99;50.22;52478.66;5070314;28;19964;-80
2023/01/21 12:26:08;;;;;;;;;;;;;;;-144.99;51.12;52431.78;5071411;28;19969;-79
2023/01/21 12:28:52;;;;;;;;;;;;;;;-144.99;50.28;52468.47;5077782;28;19929;-75
2023/01/21 12:31:24;;;;;;;;;;;;;;;-144.99;50.89;52252.44;5078235;28;19928;-75
2023/01/21 12:33:54;;;;;;;;;;;;;;;-144.99;50.24;52307.47;5060037;28;20015;-72
2023/01/21 12:36:24;;;;;;;;;;;;;;;-144.99;48.02;52411.41;5065588;28;20015;-71
2023/01/21 12:38:54;;;;;;;;;;;;;;;-144.99;47.33;52423.63;5057957;28;20011;-74